首页
METAR-TAF:

METAR-TAF

机场 :

锡罗斯岛, 希腊

纬度: 37-25-16N, 经度: 024-56-54E, 海拔: 73米

当前天气观测

该预报发布于1小时和9分钟前的08:50 UTC
风速30节,风向,有时为42节阵风
温度 15°C
湿度 63%
气压 1020 hPa
能见度10公里或以上
散云层高于2000英尺

METAR: LGSO 140850Z 36030G42KT 9999 SCT020 15/08 Q1020

时间: 11:59 (09:59 UTC)


TAF: 丢失

超过4000个机场的气象观测和天气预报(METAR&TAF报告)。

可查询的气象台以黄色和红色小点在地图上表示。

将鼠标移到小点上方,可查看气象台名称。

然后点击查看天气观测和预报。

如需切换地图:点击带黑十字的绿色按钮放大地图;点击带横线的绿色按钮缩小地图;或者点击绿色箭头查看邻近地区的地图。


METAR-TAF: